Home > Products > Valid Products > TAF

000
FTUS43 KDDC 022320
TAFDDC
TAF
KDDC 022320Z 0300/0324 18022G27KT P6SM FEW080 SCT250
     FM030130 17013KT P6SM SCT250
     FM031500 18020G30KT P6SM SKC=



000
FTUS43 KDDC 022320
TAFHYS
TAF
KHYS 022320Z 0300/0324 18021G27KT P6SM FEW080 SCT250
     FM030130 17013KT P6SM SCT250
     FM031500 18020G30KT P6SM SKC=



000
FTUS43 KDDC 022320
TAFDDC
TAF
KDDC 022320Z 0300/0324 18022G27KT P6SM FEW080 SCT250
     FM030130 17013KT P6SM SCT250
     FM031500 18020G30KT P6SM SKC=



000
FTUS43 KDDC 022320
TAFHYS
TAF
KHYS 022320Z 0300/0324 18021G27KT P6SM FEW080 SCT250
     FM030130 17013KT P6SM SCT250
     FM031500 18020G30KT P6SM SKC=



000
FTUS43 KDDC 022320
TAFGCK
TAF
KGCK 022320Z 0300/0324 19011KT P6SM FEW080 SCT250=



000
FTUS43 KDDC 022320
TAFGCK
TAF
KGCK 022320Z 0300/0324 19011KT P6SM FEW080 SCT250=



000
FTUS43 KDDC 021720
TAFDDC
TAF
KDDC 021720Z 0218/0318 19020G30KT P6SM SKC
     FM030200 17015KT P6SM SCT250
     FM031500 18020G30KT P6SM SKC=



000
FTUS43 KDDC 021720
TAFGCK
TAF
KGCK 021720Z 0218/0318 23012G20KT P6SM SKC
     FM030000 16013KT P6SM SKC=



000
FTUS43 KDDC 021720
TAFHYS
TAF
KHYS 021720Z 0218/0318 19020G30KT P6SM SKC
     FM030200 17015KT P6SM SCT250
     FM031500 18020G30KT P6SM SKC=



000
FTUS43 KDDC 021720
TAFHYS
TAF
KHYS 021720Z 0218/0318 19020G30KT P6SM SKC
     FM030200 17015KT P6SM SCT250
     FM031500 18020G30KT P6SM SKC=



000
FTUS43 KDDC 021720
TAFHYS
TAF
KHYS 021720Z 0218/0318 19020G30KT P6SM SKC
     FM030200 17015KT P6SM SCT250
     FM031500 18020G30KT P6SM SKC=



000
FTUS43 KDDC 021720
TAFDDC
TAF
KDDC 021720Z 0218/0318 19020G30KT P6SM SKC
     FM030200 17015KT P6SM SCT250
     FM031500 18020G30KT P6SM SKC=



000
FTUS43 KDDC 021720
TAFGCK
TAF
KGCK 021720Z 0218/0318 23012G20KT P6SM SKC
     FM030000 16013KT P6SM SKC=



000
FTUS43 KDDC 021720
TAFDDC
TAF
KDDC 021720Z 0218/0318 19020G30KT P6SM SKC
     FM030200 17015KT P6SM SCT250
     FM031500 18020G30KT P6SM SKC=



000
FTUS43 KDDC 021720
TAFDDC
TAF
KDDC 021720Z 0218/0318 19020G30KT P6SM SKC
     FM030200 17015KT P6SM SCT250
     FM031500 18020G30KT P6SM SKC=



000
FTUS43 KDDC 021720
TAFGCK
TAF
KGCK 021720Z 0218/0318 23012G20KT P6SM SKC
     FM030000 16013KT P6SM SKC=



000
FTUS43 KDDC 021720
TAFHYS
TAF
KHYS 021720Z 0218/0318 19020G30KT P6SM SKC
     FM030200 17015KT P6SM SCT250
     FM031500 18020G30KT P6SM SKC=



000
FTUS43 KDDC 021720
TAFGCK
TAF
KGCK 021720Z 0218/0318 23012G20KT P6SM SKC
     FM030000 16013KT P6SM SKC=



000
FTUS43 KDDC 021120
TAFDDC
TAF
KDDC 021120Z 0212/0312 17012KT P6SM BKN150
     FM021600 18020G29KT P6SM SCT250
     FM030200 17015KT P6SM SCT250=



000
FTUS43 KDDC 021120
TAFGCK
TAF
KGCK 021120Z 0212/0312 17010KT P6SM BKN150
     FM021600 18020G29KT P6SM SCT250
     FM030200 17015KT P6SM SCT250=



000
FTUS43 KDDC 021120
TAFDDC
TAF
KDDC 021120Z 0212/0312 17012KT P6SM BKN150
     FM021600 18020G29KT P6SM SCT250
     FM030200 17015KT P6SM SCT250=



000
FTUS43 KDDC 021120
TAFGCK
TAF
KGCK 021120Z 0212/0312 17010KT P6SM BKN150
     FM021600 18020G29KT P6SM SCT250
     FM030200 17015KT P6SM SCT250=



000
FTUS43 KDDC 021120
TAFDDC
TAF
KDDC 021120Z 0212/0312 17012KT P6SM BKN150
     FM021600 18020G29KT P6SM SCT250
     FM030200 17015KT P6SM SCT250=



000
FTUS43 KDDC 021120
TAFGCK
TAF
KGCK 021120Z 0212/0312 17010KT P6SM BKN150
     FM021600 18020G29KT P6SM SCT250
     FM030200 17015KT P6SM SCT250=



000
FTUS43 KDDC 021120
TAFHYS
TAF
KHYS 021120Z 0212/0312 19013G18KT P6SM BKN150
     FM021600 18020G29KT P6SM SCT250
     FM030200 16011KT P6SM SCT250=



000
FTUS43 KDDC 021120
TAFHYS
TAF
KHYS 021120Z 0212/0312 19013G18KT P6SM BKN150
     FM021600 18020G29KT P6SM SCT250
     FM030200 16011KT P6SM SCT250=



000
FTUS43 KDDC 021120
TAFHYS
TAF
KHYS 021120Z 0212/0312 19013G18KT P6SM BKN150
     FM021600 18020G29KT P6SM SCT250
     FM030200 16011KT P6SM SCT250=



000
FTUS43 KDDC 021120
TAFDDC
TAF
KDDC 021120Z 0212/0312 17012KT P6SM BKN150
     FM021600 18020G29KT P6SM SCT250
     FM030200 17015KT P6SM SCT250=



000
FTUS43 KDDC 021120
TAFHYS
TAF
KHYS 021120Z 0212/0312 19013G18KT P6SM BKN150
     FM021600 18020G29KT P6SM SCT250
     FM030200 16011KT P6SM SCT250=



000
FTUS43 KDDC 021120
TAFGCK
TAF
KGCK 021120Z 0212/0312 17010KT P6SM BKN150
     FM021600 18020G29KT P6SM SCT250
     FM030200 17015KT P6SM SCT250=



000
FTUS43 KDDC 020530
TAFGCK
TAF
KGCK 020530Z 0206/0306 17010KT P6SM BKN150
     FM021600 18020G29KT P6SM SCT250
     FM030200 17015KT P6SM SCT250=



000
FTUS43 KDDC 020530
TAFHYS
TAF
KHYS 020530Z 0206/0306 19013G18KT P6SM BKN150
     FM021600 18020G29KT P6SM SCT250
     FM030200 16011KT P6SM SCT250=



000
FTUS43 KDDC 020530
TAFDDC
TAF
KDDC 020530Z 0206/0306 17012KT P6SM BKN150
     FM021600 18020G29KT P6SM SCT250
     FM030200 17015KT P6SM SCT250=



000
FTUS43 KDDC 020530
TAFHYS
TAF
KHYS 020530Z 0206/0306 19013G18KT P6SM BKN150
     FM021600 18020G29KT P6SM SCT250
     FM030200 16011KT P6SM SCT250=



000
FTUS43 KDDC 020530
TAFGCK
TAF
KGCK 020530Z 0206/0306 17010KT P6SM BKN150
     FM021600 18020G29KT P6SM SCT250
     FM030200 17015KT P6SM SCT250=



000
FTUS43 KDDC 020530
TAFDDC
TAF
KDDC 020530Z 0206/0306 17012KT P6SM BKN150
     FM021600 18020G29KT P6SM SCT250
     FM030200 17015KT P6SM SCT250=



000
FTUS43 KDDC 020530
TAFHYS
TAF
KHYS 020530Z 0206/0306 19013G18KT P6SM BKN150
     FM021600 18020G29KT P6SM SCT250
     FM030200 16011KT P6SM SCT250=



000
FTUS43 KDDC 020530
TAFDDC
TAF
KDDC 020530Z 0206/0306 17012KT P6SM BKN150
     FM021600 18020G29KT P6SM SCT250
     FM030200 17015KT P6SM SCT250=



000
FTUS43 KDDC 020530
TAFGCK
TAF
KGCK 020530Z 0206/0306 17010KT P6SM BKN150
     FM021600 18020G29KT P6SM SCT250
     FM030200 17015KT P6SM SCT250=



000
FTUS43 KDDC 020530
TAFGCK
TAF
KGCK 020530Z 0206/0306 17010KT P6SM BKN150
     FM021600 18020G29KT P6SM SCT250
     FM030200 17015KT P6SM SCT250=



000
FTUS43 KDDC 020530
TAFDDC
TAF
KDDC 020530Z 0206/0306 17012KT P6SM BKN150
     FM021600 18020G29KT P6SM SCT250
     FM030200 17015KT P6SM SCT250=



000
FTUS43 KDDC 020530
TAFHYS
TAF
KHYS 020530Z 0206/0306 19013G18KT P6SM BKN150
     FM021600 18020G29KT P6SM SCT250
     FM030200 16011KT P6SM SCT250=



000
FTUS43 KDDC 012326
TAFGCK
TAF
KGCK 012326Z 0200/0224 22016G23KT P6SM SCT070
     FM020200 17010KT P6SM SCT070 BKN150
     FM021600 18020G29KT P6SM SCT250=



000
FTUS43 KDDC 012326
TAFHYS
TAF
KHYS 012326Z 0200/0224 23016G22KT P6SM SCT070
     FM020200 17010KT P6SM SCT070 BKN150
     FM021600 18020G29KT P6SM SCT250=



000
FTUS43 KDDC 012326
TAFDDC
TAF
KDDC 012326Z 0200/0224 23015G23KT P6SM SCT070
     FM020200 17010KT P6SM SCT070 BKN150
     FM021600 18020G29KT P6SM SCT250=



000
FTUS43 KDDC 012326
TAFDDC
TAF
KDDC 012326Z 0200/0224 23015G23KT P6SM SCT070
     FM020200 17010KT P6SM SCT070 BKN150
     FM021600 18020G29KT P6SM SCT250=



000
FTUS43 KDDC 012326
TAFHYS
TAF
KHYS 012326Z 0200/0224 23016G22KT P6SM SCT070
     FM020200 17010KT P6SM SCT070 BKN150
     FM021600 18020G29KT P6SM SCT250=



000
FTUS43 KDDC 012326
TAFGCK
TAF
KGCK 012326Z 0200/0224 22016G23KT P6SM SCT070
     FM020200 17010KT P6SM SCT070 BKN150
     FM021600 18020G29KT P6SM SCT250=



000
FTUS43 KDDC 011735
TAFDDC
TAF
KDDC 011735Z 0118/0218 20015G25KT P6SM SCT250
     FM020300 17010KT P6SM BKN250=



000
FTUS43 KDDC 011735
TAFHYS
TAF
KHYS 011735Z 0118/0218 19015G25KT P6SM SCT250
     FM020100 17010KT P6SM BKN250=



000
FTUS43 KDDC 011735
TAFGCK
TAF
KGCK 011735Z 0118/0218 19007KT P6SM SCT250=



000
FTUS43 KDDC 011735
TAFDDC
TAF
KDDC 011735Z 0118/0218 20015G25KT P6SM SCT250
     FM020300 17010KT P6SM BKN250=



000
FTUS43 KDDC 011735
TAFHYS
TAF
KHYS 011735Z 0118/0218 19015G25KT P6SM SCT250
     FM020100 17010KT P6SM BKN250=



000
FTUS43 KDDC 011735
TAFGCK
TAF
KGCK 011735Z 0118/0218 19007KT P6SM SCT250=



000
FTUS43 KDDC 011735
TAFGCK
TAF
KGCK 011735Z 0118/0218 19007KT P6SM SCT250=



000
FTUS43 KDDC 011735
TAFHYS
TAF
KHYS 011735Z 0118/0218 19015G25KT P6SM SCT250
     FM020100 17010KT P6SM BKN250=



000
FTUS43 KDDC 011735
TAFDDC
TAF
KDDC 011735Z 0118/0218 20015G25KT P6SM SCT250
     FM020300 17010KT P6SM BKN250=



000
FTUS43 KDDC 011735
TAFGCK
TAF
KGCK 011735Z 0118/0218 19007KT P6SM SCT250=



000
FTUS43 KDDC 011735
TAFHYS
TAF
KHYS 011735Z 0118/0218 19015G25KT P6SM SCT250
     FM020100 17010KT P6SM BKN250=



000
FTUS43 KDDC 011735
TAFDDC
TAF
KDDC 011735Z 0118/0218 20015G25KT P6SM SCT250
     FM020300 17010KT P6SM BKN250=



000
FTUS43 KDDC 011120
TAFDDC
TAF
KDDC 011120Z 0112/0212 17011KT P6SM SKC
     FM011400 19014G24KT P6SM SCT250
     FM020300 17013KT P6SM BKN250=



000
FTUS43 KDDC 011120
TAFHYS
TAF
KHYS 011120Z 0112/0212 17010KT P6SM SKC
     FM011600 19014G24KT P6SM SCT250
     FM020100 17012KT P6SM BKN250=



000
FTUS43 KDDC 011120
TAFDDC
TAF
KDDC 011120Z 0112/0212 17011KT P6SM SKC
     FM011400 19014G24KT P6SM SCT250
     FM020300 17013KT P6SM BKN250=



000
FTUS43 KDDC 011120
TAFDDC
TAF
KDDC 011120Z 0112/0212 17011KT P6SM SKC
     FM011400 19014G24KT P6SM SCT250
     FM020300 17013KT P6SM BKN250=



000
FTUS43 KDDC 011120
TAFGCK
TAF
KGCK 011120Z 0112/0212 17009KT P6SM SKC
     FM011400 19010G20KT P6SM SCT250
     FM020100 17011KT P6SM BKN250=



000
FTUS43 KDDC 011120
TAFGCK
TAF
KGCK 011120Z 0112/0212 17009KT P6SM SKC
     FM011400 19010G20KT P6SM SCT250
     FM020100 17011KT P6SM BKN250=



000
FTUS43 KDDC 011120
TAFHYS
TAF
KHYS 011120Z 0112/0212 17010KT P6SM SKC
     FM011600 19014G24KT P6SM SCT250
     FM020100 17012KT P6SM BKN250=



000
FTUS43 KDDC 011120
TAFHYS
TAF
KHYS 011120Z 0112/0212 17010KT P6SM SKC
     FM011600 19014G24KT P6SM SCT250
     FM020100 17012KT P6SM BKN250=



000
FTUS43 KDDC 011120
TAFHYS
TAF
KHYS 011120Z 0112/0212 17010KT P6SM SKC
     FM011600 19014G24KT P6SM SCT250
     FM020100 17012KT P6SM BKN250=



000
FTUS43 KDDC 011120
TAFGCK
TAF
KGCK 011120Z 0112/0212 17009KT P6SM SKC
     FM011400 19010G20KT P6SM SCT250
     FM020100 17011KT P6SM BKN250=



000
FTUS43 KDDC 010606 RRA
TAFHYS
TAF
KHYS 010606Z 0106/0206 17010KT P6SM SKC
     FM011600 19014G24KT P6SM SCT250
     FM020100 17012KT P6SM BKN250=



000
FTUS43 KDDC 010606 RRA
TAFHYS
TAF
KHYS 010606Z 0106/0206 17010KT P6SM SKC
     FM011600 19014G24KT P6SM SCT250
     FM020100 17012KT P6SM BKN250=



000
FTUS43 KDDC 010606 RRA
TAFGCK
TAF
KGCK 010606Z 0106/0206 17009KT P6SM SKC
     FM011400 19010G20KT P6SM SCT250
     FM020100 17011KT P6SM BKN250=



000
FTUS43 KDDC 010606 RRA
TAFHYS
TAF
KHYS 010606Z 0106/0206 17010KT P6SM SKC
     FM011600 19014G24KT P6SM SCT250
     FM020100 17012KT P6SM BKN250=



000
FTUS43 KDDC 010606 RRA
TAFHYS
TAF
KHYS 010606Z 0106/0206 17010KT P6SM SKC
     FM011600 19014G24KT P6SM SCT250
     FM020100 17012KT P6SM BKN250=



000
FTUS43 KDDC 010606 RRA
TAFDDC
TAF
KDDC 010606Z 0106/0206 17011KT P6SM SKC
     FM011400 19014G24KT P6SM SCT250
     FM020300 17013KT P6SM BKN250=



000
FTUS43 KDDC 010606 RRA
TAFGCK
TAF
KGCK 010606Z 0106/0206 17009KT P6SM SKC
     FM011400 19010G20KT P6SM SCT250
     FM020100 17011KT P6SM BKN250=



000
FTUS43 KDDC 010606 RRA
TAFDDC
TAF
KDDC 010606Z 0106/0206 17011KT P6SM SKC
     FM011400 19014G24KT P6SM SCT250
     FM020300 17013KT P6SM BKN250=



000
FTUS43 KDDC 010606 RRA
TAFDDC
TAF
KDDC 010606Z 0106/0206 17011KT P6SM SKC
     FM011400 19014G24KT P6SM SCT250
     FM020300 17013KT P6SM BKN250=



000
FTUS43 KDDC 010606 RRA
TAFDDC
TAF
KDDC 010606Z 0106/0206 17011KT P6SM SKC
     FM011400 19014G24KT P6SM SCT250
     FM020300 17013KT P6SM BKN250=



000
FTUS43 KDDC 010606 RRA
TAFGCK
TAF
KGCK 010606Z 0106/0206 17009KT P6SM SKC
     FM011400 19010G20KT P6SM SCT250
     FM020100 17011KT P6SM BKN250=



000
FTUS43 KDDC 010606 RRA
TAFGCK
TAF
KGCK 010606Z 0106/0206 17009KT P6SM SKC
     FM011400 19010G20KT P6SM SCT250
     FM020100 17011KT P6SM BKN250=



000
FTUS43 KDDC 312320
TAFGCK
TAF
KGCK 312320Z 0100/0124 17012G24KT P6SM SKC
     FM010100 17011KT P6SM SKC
     FM011400 19010G20KT P6SM SCT250=



000
FTUS43 KDDC 312320
TAFHYS
TAF
KHYS 312320Z 0100/0124 17014G22KT P6SM SKC
     FM010100 17010KT P6SM SKC
     FM011600 19014G24KT P6SM SCT250=



000
FTUS43 KDDC 312320
TAFHYS
TAF
KHYS 312320Z 0100/0124 17014G22KT P6SM SKC
     FM010100 17010KT P6SM SKC
     FM011600 19014G24KT P6SM SCT250=



000
FTUS43 KDDC 312320
TAFGCK
TAF
KGCK 312320Z 0100/0124 17012G24KT P6SM SKC
     FM010100 17011KT P6SM SKC
     FM011400 19010G20KT P6SM SCT250=



000
FTUS43 KDDC 312320
TAFDDC
TAF
KDDC 312320Z 0100/0124 17012G24KT P6SM SKC
     FM010100 17011KT P6SM SKC
     FM011400 19014G24KT P6SM SCT250=



000
FTUS43 KDDC 312320
TAFDDC
TAF
KDDC 312320Z 0100/0124 17012G24KT P6SM SKC
     FM010100 17011KT P6SM SKC
     FM011400 19014G24KT P6SM SCT250=



000
FTUS43 KDDC 311720
TAFDDC
TAF
KDDC 311720Z 3118/0118 19016G24KT P6SM SKC
     FM010100 17011KT P6SM SKC=



000
FTUS43 KDDC 311720
TAFHYS
TAF
KHYS 311720Z 3118/0118 17013G21KT P6SM SKC
     FM010100 16008KT P6SM SKC=



000
FTUS43 KDDC 311720
TAFDDC
TAF
KDDC 311720Z 3118/0118 19016G24KT P6SM SKC
     FM010100 17011KT P6SM SKC=



000
FTUS43 KDDC 311720
TAFGCK
TAF
KGCK 311720Z 3118/0118 19016G23KT P6SM SKC
     FM010100 16010KT P6SM SKC=



000
FTUS43 KDDC 311720
TAFGCK
TAF
KGCK 311720Z 3118/0118 19016G23KT P6SM SKC
     FM010100 16010KT P6SM SKC=



000
FTUS43 KDDC 311720
TAFGCK
TAF
KGCK 311720Z 3118/0118 19016G23KT P6SM SKC
     FM010100 16010KT P6SM SKC=



000
FTUS43 KDDC 311720
TAFGCK
TAF
KGCK 311720Z 3118/0118 19016G23KT P6SM SKC
     FM010100 16010KT P6SM SKC=



000
FTUS43 KDDC 311720
TAFHYS
TAF
KHYS 311720Z 3118/0118 17013G21KT P6SM SKC
     FM010100 16008KT P6SM SKC=



000
FTUS43 KDDC 311720
TAFDDC
TAF
KDDC 311720Z 3118/0118 19016G24KT P6SM SKC
     FM010100 17011KT P6SM SKC=



000
FTUS43 KDDC 311720
TAFDDC
TAF
KDDC 311720Z 3118/0118 19016G24KT P6SM SKC
     FM010100 17011KT P6SM SKC=



000
FTUS43 KDDC 311720
TAFHYS
TAF
KHYS 311720Z 3118/0118 17013G21KT P6SM SKC
     FM010100 16008KT P6SM SKC=



000
FTUS43 KDDC 311720
TAFHYS
TAF
KHYS 311720Z 3118/0118 17013G21KT P6SM SKC
     FM010100 16008KT P6SM SKC=



000
FTUS43 KDDC 311204 AAA
TAFDDC
TAF AMD
KDDC 311204Z 3112/0112 16006KT 4SM BR SKC
      TEMPO 3112/3113 1/4SM FG
     FM311400 16007KT P6SM SKC
     FM311700 18015G20KT P6SM SKC
     FM010100 17012KT P6SM SKC=



000
FTUS43 KDDC 311204 AAA
TAFDDC
TAF AMD
KDDC 311204Z 3112/0112 16006KT 4SM BR SKC
      TEMPO 3112/3113 1/4SM FG
     FM311400 16007KT P6SM SKC
     FM311700 18015G20KT P6SM SKC
     FM010100 17012KT P6SM SKC=



000
FTUS43 KDDC 311204 AAA
TAFDDC
TAF AMD
KDDC 311204Z 3112/0112 16006KT 4SM BR SKC
      TEMPO 3112/3113 1/4SM FG
     FM311400 16007KT P6SM SKC
     FM311700 18015G20KT P6SM SKC
     FM010100 17012KT P6SM SKC=



000
FTUS43 KDDC 311204 AAA
TAFDDC
TAF AMD
KDDC 311204Z 3112/0112 16006KT 4SM BR SKC
      TEMPO 3112/3113 1/4SM FG
     FM311400 16007KT P6SM SKC
     FM311700 18015G20KT P6SM SKC
     FM010100 17012KT P6SM SKC=



000
FTUS43 KDDC 311131
TAFDDC
TAF
KDDC 311131Z 3112/0112 16006KT 4SM BR SKC
     FM311400 16007KT P6SM SKC
     FM311700 18015G20KT P6SM SKC
     FM010100 17012KT P6SM SKC=



000
FTUS43 KDDC 311131
TAFGCK
TAF
KGCK 311131Z 3112/0112 15009KT P6SM SKC
     FM311700 18015G20KT P6SM SKC
     FM010100 15008KT P6SM SKC=



000
FTUS43 KDDC 311131
TAFHYS
TAF
KHYS 311131Z 3112/0112 13008KT 1/4SM FG OVC004
     FM311300 14005KT 4SM BR SKC
     FM311400 17012KT P6SM SKC
     FM311700 16014G20KT P6SM SKC
     FM312300 15007KT P6SM SKC=



000
FTUS43 KDDC 311131
TAFDDC
TAF
KDDC 311131Z 3112/0112 16006KT 4SM BR SKC
     FM311400 16007KT P6SM SKC
     FM311700 18015G20KT P6SM SKC
     FM010100 17012KT P6SM SKC=



000
FTUS43 KDDC 311131
TAFHYS
TAF
KHYS 311131Z 3112/0112 13008KT 1/4SM FG OVC004
     FM311300 14005KT 4SM BR SKC
     FM311400 17012KT P6SM SKC
     FM311700 16014G20KT P6SM SKC
     FM312300 15007KT P6SM SKC=



000
FTUS43 KDDC 311131
TAFGCK
TAF
KGCK 311131Z 3112/0112 15009KT P6SM SKC
     FM311700 18015G20KT P6SM SKC
     FM010100 15008KT P6SM SKC=



000
FTUS43 KDDC 311120 AAB
TAFDDC
TAF AMD
KDDC 311120Z 3111/0106 16006KT 2SM BR SKC
     FM311300 16007KT 4SM BR SKC
     FM311500 18012KT P6SM SKC=



000
FTUS43 KDDC 311120 AAB
TAFDDC
TAF AMD
KDDC 311120Z 3111/0106 16006KT 2SM BR SKC
     FM311300 16007KT 4SM BR SKC
     FM311500 18012KT P6SM SKC=



000
FTUS43 KDDC 311120 AAB
TAFDDC
TAF AMD
KDDC 311120Z 3111/0106 16006KT 2SM BR SKC
     FM311300 16007KT 4SM BR SKC
     FM311500 18012KT P6SM SKC=



000
FTUS43 KDDC 311120 AAB
TAFDDC
TAF AMD
KDDC 311120Z 3111/0106 16006KT 2SM BR SKC
     FM311300 16007KT 4SM BR SKC
     FM311500 18012KT P6SM SKC=



000
FTUS43 KDDC 311119 AAA
TAFHYS
TAF AMD
KHYS 311119Z 3111/0106 13008KT 1/4SM FG OVC004
     FM311300 14005KT 4SM BR SKC
     FM311400 17012KT P6SM SKC=



000
FTUS43 KDDC 311119 AAA
TAFHYS
TAF AMD
KHYS 311119Z 3111/0106 13008KT 1/4SM FG OVC004
     FM311300 14005KT 4SM BR SKC
     FM311400 17012KT P6SM SKC=



000
FTUS43 KDDC 311119 AAA
TAFHYS
TAF AMD
KHYS 311119Z 3111/0106 13008KT 1/4SM FG OVC004
     FM311300 14005KT 4SM BR SKC
     FM311400 17012KT P6SM SKC=



000
FTUS43 KDDC 310520
TAFHYS
TAF
KHYS 310520Z 3106/0106 13008KT P6SM SKC
     FM310900 14005KT 4SM BR SKC
     FM311400 17012KT P6SM SKC=



000
FTUS43 KDDC 310520
TAFDDC
TAF
KDDC 310520Z 3106/0106 14009KT P6SM SKC
     FM310900 15007KT 4SM BR SKC
     FM311100 16006KT 2SM BR SKC
     FM311300 16007KT 4SM BR SKC
     FM311500 18012KT P6SM SKC=



000
FTUS43 KDDC 310520
TAFDDC
TAF
KDDC 310520Z 3106/0106 14009KT P6SM SKC
     FM310900 15007KT 4SM BR SKC
     FM311100 16006KT 2SM BR SKC
     FM311300 16007KT 4SM BR SKC
     FM311500 18012KT P6SM SKC=



000
FTUS43 KDDC 310520
TAFHYS
TAF
KHYS 310520Z 3106/0106 13008KT P6SM SKC
     FM310900 14005KT 4SM BR SKC
     FM311400 17012KT P6SM SKC=



000
FTUS43 KDDC 310520
TAFGCK
TAF
KGCK 310520Z 3106/0106 15009KT P6SM SKC=



000
FTUS43 KDDC 310520
TAFGCK
TAF
KGCK 310520Z 3106/0106 15009KT P6SM SKC=



000
FTUS43 KDDC 310520
TAFHYS
TAF
KHYS 310520Z 3106/0106 13008KT P6SM SKC
     FM310900 14005KT 4SM BR SKC
     FM311400 17012KT P6SM SKC=



000
FTUS43 KDDC 310520
TAFHYS
TAF
KHYS 310520Z 3106/0106 13008KT P6SM SKC
     FM310900 14005KT 4SM BR SKC
     FM311400 17012KT P6SM SKC=



000
FTUS43 KDDC 310520
TAFDDC
TAF
KDDC 310520Z 3106/0106 14009KT P6SM SKC
     FM310900 15007KT 4SM BR SKC
     FM311100 16006KT 2SM BR SKC
     FM311300 16007KT 4SM BR SKC
     FM311500 18012KT P6SM SKC=



000
FTUS43 KDDC 310520
TAFGCK
TAF
KGCK 310520Z 3106/0106 15009KT P6SM SKC=



000
FTUS43 KDDC 310520
TAFGCK
TAF
KGCK 310520Z 3106/0106 15009KT P6SM SKC=



000
FTUS43 KDDC 310520
TAFDDC
TAF
KDDC 310520Z 3106/0106 14009KT P6SM SKC
     FM310900 15007KT 4SM BR SKC
     FM311100 16006KT 2SM BR SKC
     FM311300 16007KT 4SM BR SKC
     FM311500 18012KT P6SM SKC=



    US Dept of Commerce
    National Oceanic and Atmospheric Administration
    National Weather Service
    1325 East West Highway
    Silver Spring, MD 20910
    Page Author: NWS Internet Services Team
Disclaimer
Information Quality
Credits
Glossary
Privacy Policy
Freedom of Information Act (FOIA)
About Us
Career Opportunities